createdAt,value
2023-05-22T00:00:47.060Z,57.90
2023-05-22T00:03:16.306Z,57.80
2023-05-22T00:05:45.547Z,57.70
2023-05-22T00:08:14.753Z,57.90
2023-05-22T00:10:44.080Z,57.70
2023-05-22T00:13:13.244Z,57.70
2023-05-22T00:15:42.542Z,57.90
2023-05-22T00:18:12.119Z,57.90
2023-05-22T00:20:41.388Z,57.70
2023-05-22T00:23:11.410Z,58.50
2023-05-22T00:25:41.405Z,58.10
2023-05-22T00:28:10.793Z,58.00
2023-05-22T00:30:40.378Z,58.20
2023-05-22T00:33:10.008Z,57.80
2023-05-22T00:35:39.305Z,58.40
2023-05-22T00:38:08.707Z,58.00
2023-05-22T00:40:38.331Z,57.50
2023-05-22T00:43:07.824Z,57.80
2023-05-22T00:45:37.233Z,57.60
2023-05-22T00:48:06.549Z,57.90
2023-05-22T00:50:37.960Z,57.80
2023-05-22T00:53:07.792Z,57.60
2023-05-22T00:55:37.260Z,56.80
2023-05-22T00:58:06.600Z,56.70
2023-05-22T01:00:36.024Z,56.80
2023-05-22T01:03:05.372Z,57.50
2023-05-22T01:05:34.790Z,56.70
2023-05-22T01:08:04.104Z,56.80
2023-05-22T01:10:33.614Z,56.40
2023-05-22T01:13:02.493Z,57.10
2023-05-22T01:15:31.709Z,56.50
2023-05-22T01:18:01.123Z,56.70
2023-05-22T01:20:30.198Z,56.40
2023-05-22T01:22:59.600Z,56.50
2023-05-22T01:25:32.145Z,56.70
2023-05-22T01:27:59.522Z,56.40
2023-05-22T01:30:28.829Z,56.30
2023-05-22T01:32:58.104Z,56.40
2023-05-22T01:35:27.441Z,56.20
2023-05-22T01:37:56.523Z,56.30
2023-05-22T01:40:25.739Z,56.20
2023-05-22T01:42:55.231Z,56.20
2023-05-22T01:45:24.843Z,56.00
2023-05-22T01:47:54.990Z,56.10
2023-05-22T01:50:24.269Z,56.00
2023-05-22T01:52:53.559Z,56.00
2023-05-22T01:55:22.666Z,56.00
2023-05-22T01:57:51.962Z,56.10
2023-05-22T02:00:21.362Z,56.00
2023-05-22T02:02:52.173Z,56.00
2023-05-22T02:05:21.391Z,56.00
2023-05-22T02:07:50.817Z,55.80
2023-05-22T02:10:20.407Z,55.80
2023-05-22T02:12:49.817Z,55.80
2023-05-22T02:15:19.394Z,55.70
2023-05-22T02:17:49.929Z,55.70
2023-05-22T02:20:19.039Z,55.70
2023-05-22T02:22:48.347Z,55.70
2023-05-22T02:25:17.861Z,55.60
2023-05-22T02:27:47.160Z,55.60
2023-05-22T02:30:16.345Z,55.60
2023-05-22T02:32:46.607Z,55.50
2023-05-22T02:35:15.986Z,55.30
2023-05-22T02:37:46.280Z,55.40
2023-05-22T02:40:15.809Z,55.40
2023-05-22T02:42:45.507Z,55.30
2023-05-22T02:45:15.333Z,55.30
2023-05-22T02:47:45.014Z,55.40
2023-05-22T12:55:51.795Z,60.80
2023-05-22T12:58:21.305Z,60.00
2023-05-22T13:00:50.804Z,60.00
2023-05-22T13:03:20.231Z,59.90
2023-05-22T13:05:49.832Z,59.70
2023-05-22T13:08:19.126Z,59.50
2023-05-22T13:10:48.307Z,59.30
2023-05-22T13:13:17.515Z,59.20
2023-05-22T13:15:46.878Z,59.00
2023-05-22T13:18:16.016Z,58.90
2023-05-22T13:20:45.132Z,58.80
2023-05-22T13:23:14.507Z,58.80
2023-05-22T13:25:43.599Z,58.70
2023-05-22T13:28:13.007Z,58.80
2023-05-22T13:30:42.425Z,58.70
2023-05-22T13:33:11.400Z,58.80
2023-05-22T13:35:40.848Z,58.80
2023-05-22T13:38:10.102Z,58.80
2023-05-22T13:40:39.304Z,59.30
2023-05-22T13:43:08.515Z,58.50
2023-05-22T13:45:38.176Z,58.40
2023-05-22T13:48:07.724Z,58.40
2023-05-22T13:50:36.813Z,58.40
2023-05-22T13:53:06.024Z,58.50
2023-05-22T13:55:35.111Z,59.60
2023-05-22T13:58:04.514Z,60.40
2023-05-22T14:00:33.936Z,58.20
2023-05-22T14:03:03.488Z,56.10
2023-05-22T14:05:32.515Z,54.60
2023-05-22T14:08:01.926Z,54.20
2023-05-22T14:10:31.127Z,54.10
2023-05-22T14:13:00.206Z,52.20
2023-05-22T14:15:29.302Z,52.10
2023-05-22T14:17:58.554Z,52.40
2023-05-22T14:20:27.908Z,52.40
2023-05-22T14:22:58.386Z,53.00
2023-05-22T14:25:27.633Z,53.40
2023-05-22T14:27:57.034Z,53.60
2023-05-22T14:30:29.652Z,54.40
2023-05-22T14:32:59.035Z,54.40
2023-05-22T14:35:28.528Z,54.10
2023-05-22T14:37:57.920Z,54.00
2023-05-22T14:40:27.122Z,54.60
2023-05-22T14:42:56.434Z,54.70
2023-05-22T14:45:25.837Z,54.50
2023-05-22T14:47:54.857Z,54.60
2023-05-22T14:50:24.224Z,54.50
2023-05-22T14:52:53.753Z,54.60
2023-05-22T14:55:23.026Z,54.60
2023-05-22T14:57:52.330Z,54.80
2023-05-22T15:00:21.546Z,54.30
2023-05-22T15:02:50.648Z,54.10
2023-05-22T15:05:19.853Z,54.00
2023-05-22T15:07:51.338Z,53.90
2023-05-22T15:10:20.072Z,53.80
2023-05-22T15:12:49.269Z,54.10
2023-05-22T15:15:18.264Z,54.60
2023-05-22T15:17:47.814Z,53.70
2023-05-22T15:20:16.957Z,53.40
2023-05-22T15:22:46.365Z,53.60
2023-05-22T15:25:15.838Z,53.60
2023-05-22T15:27:45.184Z,54.00
2023-05-22T15:30:14.471Z,54.10
2023-05-22T15:32:43.991Z,53.80
2023-05-22T15:35:13.480Z,54.10
2023-05-22T15:37:42.810Z,54.90
2023-05-22T15:40:12.181Z,54.90
2023-05-22T15:42:41.490Z,55.00
2023-05-22T15:45:10.891Z,55.30
2023-05-22T15:47:40.132Z,55.10
2023-05-22T15:50:09.568Z,54.20
2023-05-22T15:52:38.904Z,53.00
2023-05-22T15:55:08.084Z,52.50
2023-05-22T15:57:38.926Z,52.00
2023-05-22T16:00:08.332Z,51.40
2023-05-22T16:02:36.611Z,51.00
2023-05-22T16:05:05.809Z,50.80
2023-05-22T16:07:35.019Z,50.80
2023-05-22T16:10:04.314Z,50.70
2023-05-22T16:12:33.800Z,50.60
2023-05-22T16:15:04.468Z,50.60
2023-05-22T16:17:33.661Z,50.20
2023-05-22T16:20:02.924Z,50.00
2023-05-22T16:22:44.193Z,50.00
2023-05-22T16:25:02.770Z,49.80
2023-05-22T16:27:31.752Z,49.60
2023-05-22T16:30:03.266Z,49.40
2023-05-22T16:32:32.539Z,49.20
2023-05-22T16:35:01.710Z,49.20
2023-05-22T16:37:33.146Z,48.90
2023-05-22T16:40:02.462Z,49.00
2023-05-22T16:42:31.561Z,48.90
2023-05-22T16:45:00.956Z,49.00
2023-05-22T16:47:30.159Z,49.10
2023-05-22T16:49:59.257Z,49.30
2023-05-22T16:52:28.554Z,49.40
2023-05-22T16:54:57.740Z,49.30
2023-05-22T16:57:27.055Z,49.60
2023-05-22T16:59:57.810Z,50.00
2023-05-22T17:02:26.584Z,50.00
2023-05-22T17:04:55.665Z,50.30
2023-05-22T17:07:24.962Z,50.30
2023-05-22T17:09:54.170Z,50.30
2023-05-22T17:12:23.155Z,50.10
2023-05-22T17:14:52.468Z,50.40
2023-05-22T17:17:21.946Z,50.40
2023-05-22T17:19:51.150Z,50.40
2023-05-22T17:22:20.313Z,50.20
2023-05-22T17:24:49.673Z,50.60
2023-05-22T17:27:34.456Z,50.60
2023-05-22T17:29:49.076Z,50.60
2023-05-22T17:32:18.416Z,50.60
2023-05-22T17:34:47.690Z,50.50
2023-05-22T17:37:16.980Z,50.50
2023-05-22T17:39:46.293Z,50.30
2023-05-22T17:42:15.376Z,50.60
2023-05-22T17:44:44.384Z,50.40
2023-05-22T17:47:13.670Z,50.50
2023-05-22T17:49:43.077Z,50.30
2023-05-22T17:52:12.376Z,50.20
2023-05-22T17:54:41.616Z,50.30
2023-05-22T17:57:10.877Z,50.30
2023-05-22T17:59:40.567Z,50.40
2023-05-22T18:02:09.893Z,50.50
2023-05-22T18:04:39.188Z,50.10
2023-05-22T18:07:08.391Z,50.50
2023-05-22T18:09:37.476Z,50.20
2023-05-22T18:12:08.128Z,50.30
2023-05-22T18:14:36.794Z,50.20
2023-05-22T18:17:05.996Z,50.10
2023-05-22T18:19:35.112Z,50.20
2023-05-22T18:22:11.655Z,50.60
2023-05-22T18:24:40.556Z,51.00
2023-05-22T18:27:09.860Z,51.30
2023-05-22T18:29:39.057Z,51.40
2023-05-22T18:32:07.943Z,51.20
2023-05-22T18:34:48.556Z,51.30
2023-05-22T18:37:21.942Z,51.00
2023-05-22T18:39:50.998Z,51.50
2023-05-22T18:42:20.406Z,50.90
2023-05-22T18:44:49.612Z,51.00
2023-05-22T18:47:18.595Z,51.10
2023-05-22T18:49:47.485Z,51.30
2023-05-22T18:52:16.599Z,51.20
2023-05-22T18:54:45.774Z,51.60
2023-05-22T18:57:14.785Z,50.90
2023-05-22T18:59:43.765Z,50.70
2023-05-22T19:02:12.889Z,50.80
2023-05-22T19:04:41.966Z,50.70
2023-05-22T19:07:11.168Z,50.60
2023-05-22T19:09:40.461Z,50.70
2023-05-22T19:12:09.383Z,50.70
2023-05-22T19:14:38.555Z,50.90
2023-05-22T19:17:07.663Z,50.90
2023-05-22T19:19:37.797Z,50.80
2023-05-22T19:22:06.991Z,50.60
2023-05-22T19:24:36.063Z,50.70
2023-05-22T19:27:05.177Z,50.40
2023-05-22T19:29:34.045Z,50.40
2023-05-22T19:32:03.125Z,50.50
2023-05-22T19:34:32.319Z,50.30
2023-05-22T19:37:01.255Z,50.50
2023-05-22T19:39:30.123Z,50.20
2023-05-22T19:41:59.022Z,50.00
2023-05-22T19:44:28.009Z,49.90
2023-05-22T19:46:56.980Z,49.90
2023-05-22T19:49:26.094Z,49.80
2023-05-22T19:51:56.224Z,50.20
2023-05-22T19:54:25.408Z,50.50
2023-05-22T19:56:54.623Z,50.30
2023-05-22T19:59:24.027Z,50.10
2023-05-22T20:01:53.921Z,50.10
2023-05-22T20:04:23.023Z,50.60
2023-05-22T20:06:52.126Z,50.70
2023-05-22T20:09:21.120Z,49.80
2023-05-22T20:11:49.994Z,49.70
2023-05-22T20:14:18.999Z,49.70
2023-05-22T20:16:48.283Z,49.70
2023-05-22T20:19:18.450Z,49.80
2023-05-22T20:21:49.772Z,49.60
2023-05-22T20:24:17.760Z,49.60
2023-05-22T20:26:48.277Z,49.60
2023-05-22T20:29:17.252Z,49.50
2023-05-22T20:31:46.604Z,49.50
2023-05-22T20:34:15.649Z,49.40
2023-05-22T20:36:45.009Z,49.70
2023-05-22T20:39:14.149Z,49.80
2023-05-22T20:41:43.071Z,49.90
2023-05-22T20:44:12.932Z,49.80
2023-05-22T20:46:41.934Z,49.80
2023-05-22T20:49:11.048Z,49.70
2023-05-22T20:51:39.941Z,49.70
2023-05-22T20:54:09.863Z,49.60
2023-05-22T20:56:38.790Z,49.70
2023-05-22T20:59:07.945Z,49.70
2023-05-22T21:01:36.868Z,49.70
2023-05-22T21:04:07.107Z,49.90
2023-05-22T21:06:36.355Z,49.90
2023-05-22T21:09:05.466Z,49.90
2023-05-22T21:11:34.440Z,50.20
2023-05-22T21:14:03.585Z,50.60
2023-05-22T21:16:32.666Z,50.70
2023-05-22T21:19:01.638Z,50.90
2023-05-22T21:21:31.937Z,51.10
2023-05-22T21:24:00.818Z,51.40
2023-05-22T21:26:29.738Z,51.00
2023-05-22T21:28:58.930Z,51.20
2023-05-22T21:31:28.062Z,51.60
2023-05-22T21:33:57.016Z,51.80
2023-05-22T21:36:26.322Z,51.90
2023-05-22T21:38:55.431Z,52.00
2023-05-22T21:41:24.405Z,52.40
2023-05-22T21:43:53.301Z,52.30
2023-05-22T21:46:22.351Z,52.30
2023-05-22T21:48:51.300Z,52.50
2023-05-22T21:51:20.175Z,52.70
2023-05-22T21:53:49.282Z,52.80
2023-05-22T21:56:18.158Z,53.00
2023-05-22T21:58:47.154Z,53.20
2023-05-22T22:01:16.057Z,53.30
2023-05-22T22:03:45.011Z,53.60
2023-05-22T22:06:13.927Z,52.50
2023-05-22T22:08:43.247Z,52.00
2023-05-22T22:11:12.540Z,52.40
2023-05-22T22:13:41.439Z,52.20
2023-05-22T22:16:10.393Z,52.20
2023-05-22T22:18:39.537Z,54.50
2023-05-22T22:21:08.625Z,54.70
2023-05-22T22:23:37.795Z,54.80
2023-05-22T22:26:06.693Z,55.00
2023-05-22T22:28:35.655Z,55.00
2023-05-22T22:31:04.684Z,55.10
2023-05-22T22:33:33.521Z,55.20
2023-05-22T22:36:02.574Z,55.30
2023-05-22T22:38:31.769Z,55.80
2023-05-22T22:41:00.862Z,56.00
2023-05-22T22:43:29.831Z,56.20
2023-05-22T22:45:58.879Z,56.30
2023-05-22T22:48:29.295Z,56.60
2023-05-22T22:50:58.145Z,56.60
2023-05-22T22:53:27.061Z,56.80
2023-05-22T22:55:56.048Z,57.00
2023-05-22T22:58:25.043Z,56.90
2023-05-22T23:00:54.136Z,57.00
2023-05-22T23:03:23.241Z,57.20
2023-05-22T23:05:52.200Z,56.80
2023-05-22T23:08:21.219Z,57.50
2023-05-22T23:10:50.222Z,57.10
2023-05-22T23:13:19.317Z,57.10
2023-05-22T23:15:48.367Z,58.10
2023-05-22T23:18:17.702Z,57.50
2023-05-22T23:20:46.710Z,57.30
2023-05-22T23:23:15.694Z,57.80
2023-05-22T23:25:44.796Z,57.40
2023-05-22T23:28:13.690Z,58.80
2023-05-22T23:30:42.548Z,58.60
2023-05-22T23:33:11.767Z,59.10
2023-05-22T23:35:41.436Z,58.60
2023-05-22T23:38:14.514Z,58.90
2023-05-22T23:40:43.558Z,58.70
2023-05-22T23:43:17.719Z,60.40
2023-05-22T23:45:47.285Z,59.30
2023-05-22T23:48:16.595Z,59.40
2023-05-22T23:50:45.892Z,59.40
2023-05-22T23:53:15.190Z,59.20
2023-05-22T23:55:44.277Z,58.80
2023-05-22T23:58:13.490Z,59.30
